Time;durP1;ratioP1;P1;durP2;ratioP2;P2;SDS_P1;SDS_P2;PMS_P1;PMS_P2;Temp;Humidity;BMP_temperature;BMP_pressure;BME280_temperature;BME280_humidity;BME280_pressure;Samples;Min_cycle;Max_cycle;Signal;HPM_P1;HPM_P2
2023/10/06 00:05:08;;;;;;;10.00;2.20;;;;;;;10.69;79.92;100243.81;7282954;39;20990;31
2023/10/06 00:10:27;;;;;;;3.70;2.25;;;;;;;10.72;79.13;100246.22;7266295;40;20346;31
2023/10/06 00:16:01;;;;;;;4.56;2.30;;;;;;;10.71;78.93;100242.66;7313509;39;21474;31
2023/10/06 00:21:43;;;;;;;2.90;2.03;;;;;;;10.59;79.07;100246.50;7301036;39;20452;31
2023/10/06 00:27:01;;;;;;;3.70;2.10;;;;;;;10.57;79.14;100239.56;7318482;39;20256;31
2023/10/06 00:32:36;;;;;;;5.00;2.10;;;;;;;10.55;79.23;100237.00;7269264;40;20246;31
2023/10/06 00:38:16;;;;;;;2.90;2.00;;;;;;;10.35;79.40;100229.91;7270245;40;20256;31
2023/10/06 00:43:49;;;;;;;4.70;2.20;;;;;;;10.36;79.04;100235.12;7246321;40;20746;31
2023/10/06 00:49:25;;;;;;;8.00;2.80;;;;;;;10.36;78.38;100231.56;7223730;40;20227;31
2023/10/06 00:55:02;;;;;;;3.60;2.40;;;;;;;10.53;78.38;100225.47;7219886;40;20305;31
2023/10/06 01:00:37;;;;;;;6.53;2.30;;;;;;;10.43;77.85;100221.97;7247242;40;20253;31
2023/10/06 01:06:14;;;;;;;5.60;2.00;;;;;;;10.23;78.18;100217.50;7243565;40;20246;31
2023/10/06 01:11:55;;;;;;;4.97;2.10;;;;;;;10.06;78.14;100231.62;7259576;40;20375;31
2023/10/06 01:17:30;;;;;;;5.15;2.10;;;;;;;9.87;78.96;100232.44;7261346;40;21083;31
2023/10/06 01:23:20;;;;;;;6.63;2.40;;;;;;;9.83;78.78;100230.97;7237996;40;20242;31
2023/10/06 01:28:45;;;;;;;5.22;2.10;;;;;;;9.87;78.69;100224.38;7246903;40;20254;31
2023/10/06 01:34:07;;;;;;;5.40;2.30;;;;;;;9.80;78.41;100215.09;7209533;40;20246;31
2023/10/06 01:39:43;;;;;;;7.55;2.10;;;;;;;9.71;79.18;100222.16;7241650;40;20429;31
2023/10/06 01:45:13;;;;;;;4.70;2.57;;;;;;;9.92;78.97;100231.03;7227682;40;21541;31
2023/10/06 01:50:39;;;;;;;4.57;2.17;;;;;;;10.05;78.87;100221.88;7262350;39;20492;31
2023/10/06 01:56:14;;;;;;;3.50;2.10;;;;;;;10.21;77.66;100203.34;7255441;40;20254;31
2023/10/06 02:06:56;;;;;;;3.77;2.30;;;;;;;9.85;79.21;100210.16;7212141;40;20351;31
2023/10/06 02:12:33;;;;;;;5.93;2.22;;;;;;;9.70;79.46;100220.47;7225922;40;20250;31
2023/10/06 02:18:12;;;;;;;5.00;2.15;;;;;;;9.74;80.14;100205.72;7303494;39;20255;31
2023/10/06 02:23:44;;;;;;;3.23;1.87;;;;;;;9.68;80.76;100217.06;7239519;40;20611;31
2023/10/06 02:29:22;;;;;;;5.47;2.10;;;;;;;9.68;81.15;100209.00;7254804;40;20238;31
2023/10/06 02:34:40;;;;;;;5.30;2.20;;;;;;;9.65;80.28;100205.72;7233010;40;20411;31
2023/10/06 02:40:00;;;;;;;5.70;2.60;;;;;;;9.57;80.57;100200.13;7270688;40;20320;31
2023/10/06 02:45:40;;;;;;;5.25;2.60;;;;;;;9.44;80.90;100214.69;7285149;40;20529;31
2023/10/06 02:51:18;;;;;;;6.40;2.10;;;;;;;9.55;80.76;100207.50;7285004;40;20635;31
2023/10/06 02:56:55;;;;;;;6.40;2.43;;;;;;;9.54;80.58;100195.91;7260638;40;20258;31
2023/10/06 03:03:11;;;;;;;5.87;2.43;;;;;;;9.46;81.24;100198.41;7268114;40;20264;31
2023/10/06 03:08:36;;;;;;;6.93;2.13;;;;;;;9.32;81.36;100182.63;7120217;39;21295;31
2023/10/06 03:13:58;;;;;;;4.93;2.30;;;;;;;9.30;81.64;100195.38;7260249;40;20291;31
2023/10/06 03:19:13;;;;;;;5.07;2.30;;;;;;;9.30;81.07;100187.31;7292858;39;20240;31
2023/10/06 03:24:58;;;;;;;7.75;2.40;;;;;;;9.29;81.61;100182.91;7272858;40;20268;31
2023/10/06 03:30:33;;;;;;;4.10;2.20;;;;;;;9.24;81.62;100195.91;7252861;40;20284;31
2023/10/06 03:41:25;;;;;;;6.53;2.97;;;;;;;9.24;81.59;100182.44;7283787;39;20260;31
2023/10/06 03:47:00;;;;;;;4.80;2.50;;;;;;;9.17;81.67;100197.44;7251738;40;20626;31
2023/10/06 03:52:34;;;;;;;6.33;2.40;;;;;;;9.16;81.36;100203.78;7263884;40;20277;31
2023/10/06 04:03:14;;;;;;;7.32;2.75;;;;;;;9.12;80.93;100183.53;7223387;40;21967;31
2023/10/06 04:13:59;;;;;;;5.67;2.50;;;;;;;8.83;81.39;100183.34;7321382;39;20315;31
2023/10/06 04:24:40;;;;;;;5.90;2.60;;;;;;;8.93;81.88;100170.81;7315137;39;20259;31
2023/10/06 04:35:24;;;;;;;6.93;2.58;;;;;;;8.86;82.31;100165.09;7328985;39;20281;31
2023/10/06 04:40:57;;;;;;;7.25;2.85;;;;;;;8.80;81.84;100170.16;7281447;40;20323;31
2023/10/06 04:46:19;;;;;;;7.70;2.80;;;;;;;8.75;82.56;100180.44;7247896;40;20758;31
2023/10/06 04:51:50;;;;;;;3.90;2.30;;;;;;;8.78;82.77;100170.28;7237413;40;20254;31
2023/10/06 04:57:26;;;;;;;5.73;2.20;;;;;;;8.91;81.89;100178.12;7160423;40;20241;31
2023/10/06 05:03:06;;;;;;;8.20;2.63;;;;;;;9.20;80.66;100181.00;7173768;40;20759;31
2023/10/06 05:08:25;;;;;;;7.33;2.53;;;;;;;9.21;80.00;100190.78;7197812;40;20253;31
2023/10/06 05:14:02;;;;;;;3.37;2.33;;;;;;;9.12;80.88;100184.38;7204023;40;20262;31
2023/10/06 05:19:39;;;;;;;7.73;3.20;;;;;;;8.99;80.54;100189.13;7206025;40;20245;31
2023/10/06 05:25:01;;;;;;;5.07;2.60;;;;;;;8.93;80.44;100187.78;7246823;40;20242;31
2023/10/06 05:30:37;;;;;;;8.03;3.03;;;;;;;8.87;81.46;100177.56;7268058;40;20279;31
2023/10/06 05:41:17;;;;;;;5.13;2.50;;;;;;;8.74;80.78;100190.34;7289931;39;20826;31
2023/10/06 05:51:58;;;;;;;4.87;2.30;;;;;;;8.94;80.57;100197.56;7329143;39;20342;31
2023/10/06 05:57:37;;;;;;;5.50;2.57;;;;;;;9.19;79.65;100209.75;7276161;40;20263;31
2023/10/06 06:03:11;;;;;;;7.67;3.33;;;;;;;9.24;79.74;100212.03;7280879;39;21099;31
2023/10/06 06:08:47;;;;;;;3.77;2.43;;;;;;;9.14;79.21;100209.28;7296290;40;20511;31
2023/10/06 06:14:22;;;;;;;6.32;2.80;;;;;;;9.17;79.46;100221.62;7235180;40;20266;31
2023/10/06 06:19:42;;;;;;;4.60;2.57;;;;;;;9.18;80.34;100231.38;7238380;40;20250;31
2023/10/06 06:25:16;;;;;;;5.20;2.47;;;;;;;9.32;79.45;100218.44;7233268;40;20278;31
2023/10/06 06:30:50;;;;;;;23.45;15.85;;;;;;;9.52;79.43;100233.69;7209150;40;20315;31
2023/10/06 06:36:09;;;;;;;8.57;5.00;;;;;;;9.58;79.51;100226.94;7246622;40;20596;31
2023/10/06 06:41:46;;;;;;;9.27;4.00;;;;;;;9.74;79.20;100223.75;7328647;39;20495;31
2023/10/06 06:47:26;;;;;;;6.53;2.90;;;;;;;9.78;79.77;100223.34;7263097;40;20245;31
2023/10/06 06:52:58;;;;;;;4.45;2.90;;;;;;;10.01;79.93;100233.87;7239867;40;20335;31
2023/10/06 06:58:38;;;;;;;7.70;3.00;;;;;;;10.11;81.00;100251.78;7248100;40;20391;31
2023/10/06 07:04:00;;;;;;;7.17;2.90;;;;;;;10.18;82.22;100255.66;7233588;40;20374;31
2023/10/06 07:09:18;;;;;;;5.65;3.00;;;;;;;10.37;81.79;100263.78;7229052;40;20364;31
2023/10/06 07:14:57;;;;;;;6.63;2.97;;;;;;;10.58;81.78;100243.94;7253277;40;20387;31
2023/10/06 07:20:30;;;;;;;6.73;3.30;;;;;;;10.75;83.33;100252.16;7268211;40;20319;31
2023/10/06 07:26:07;;;;;;;7.93;4.33;;;;;;;10.83;85.54;100238.84;7303617;39;20358;31
2023/10/06 07:31:43;;;;;;;7.80;3.60;;;;;;;11.00;84.09;100239.12;7274419;40;20281;31
2023/10/06 07:42:06;;;;;;;6.50;3.90;;;;;;;11.49;82.50;100227.22;7264900;40;21206;31
2023/10/06 07:47:42;;;;;;;8.10;3.90;;;;;;;11.70;82.94;100225.16;7295541;39;20264;31
2023/10/06 07:53:16;;;;;;;7.95;5.20;;;;;;;11.88;81.93;100236.06;7290881;39;20310;31
2023/10/06 07:58:52;;;;;;;10.53;4.40;;;;;;;11.96;82.41;100238.84;7300846;39;20837;31
2023/10/06 08:04:28;;;;;;;8.60;3.87;;;;;;;12.14;83.06;100229.78;7279812;40;20318;31
2023/10/06 08:10:05;;;;;;;8.87;3.80;;;;;;;12.35;82.13;100220.53;7209206;40;20243;31
2023/10/06 08:15:28;;;;;;;8.10;3.50;;;;;;;12.59;81.80;100228.91;7270570;40;20241;31
2023/10/06 08:21:04;;;;;;;7.43;3.73;;;;;;;12.68;83.45;100229.84;7259616;40;20246;31
2023/10/06 08:31:44;;;;;;;9.45;3.30;;;;;;;13.12;81.21;100239.72;7277968;39;20312;31
2023/10/06 08:42:23;;;;;;;9.17;3.43;;;;;;;13.39;81.36;100247.72;7341366;39;20267;31
2023/10/06 08:53:04;;;;;;;12.47;4.20;;;;;;;13.71;80.29;100229.94;7324463;39;20823;31
2023/10/06 08:58:41;;;;;;;9.60;4.10;;;;;;;13.92;79.71;100233.09;7262588;40;20241;31
2023/10/06 09:04:15;;;;;;;9.33;4.10;;;;;;;14.09;79.23;100236.72;7291537;39;20248;31
2023/10/06 09:09:47;;;;;;;8.30;3.90;;;;;;;14.15;78.87;100236.06;7242737;40;21109;31
2023/10/06 09:15:24;;;;;;;9.00;4.15;;;;;;;14.22;78.60;100220.84;7247700;40;20242;31
2023/10/06 09:21:02;;;;;;;8.80;4.10;;;;;;;14.40;77.94;100213.47;7210489;40;21233;31
2023/10/06 09:26:44;;;;;;;5.45;3.70;;;;;;;14.52;78.09;100211.31;7144810;40;20262;31
2023/10/06 09:32:30;;;;;;;10.95;4.20;;;;;;;14.69;77.19;100205.72;7151145;40;20341;31
2023/10/06 09:37:54;;;;;;;7.25;3.90;;;;;;;14.88;76.85;100208.09;7196679;40;20247;31
2023/10/06 09:43:25;;;;;;;8.97;4.10;;;;;;;15.03;76.15;100202.84;7241893;40;20377;31
2023/10/06 09:49:01;;;;;;;7.90;3.97;;;;;;;15.18;76.75;100195.69;7279740;39;20251;31
2023/10/06 09:54:36;;;;;;;8.33;4.20;;;;;;;15.35;75.87;100196.53;7268853;40;20257;31
2023/10/06 10:00:15;;;;;;;9.27;3.87;;;;;;;15.50;76.16;100191.22;7062700;40;20233;31
2023/10/06 10:06:04;;;;;;;11.10;3.80;;;;;;;15.65;75.68;100181.38;7261041;40;20284;31
2023/10/06 10:16:39;;;;;;;8.40;3.17;;;;;;;15.98;75.06;100176.63;7245606;40;20262;31
2023/10/06 10:22:16;;;;;;;9.75;3.50;;;;;;;16.12;73.93;100170.44;7219547;40;20247;31
2023/10/06 10:27:48;;;;;;;9.20;2.90;;;;;;;16.30;71.43;100170.16;7199767;40;20246;31
2023/10/06 10:33:09;;;;;;;7.73;3.03;;;;;;;16.39;71.75;100174.53;7221555;40;20240;31
2023/10/06 10:38:48;;;;;;;7.00;2.80;;;;;;;16.52;70.99;100167.47;7226457;40;20259;31
2023/10/06 10:44:11;;;;;;;6.73;3.03;;;;;;;16.73;70.22;100161.38;7187639;40;20311;31
2023/10/06 10:49:32;;;;;;;7.60;3.00;;;;;;;16.86;69.63;100169.78;7191031;40;20261;31
2023/10/06 10:55:07;;;;;;;7.37;2.43;;;;;;;16.93;69.16;100154.41;7204112;40;20273;31
2023/10/06 11:05:47;;;;;;;8.30;3.07;;;;;;;17.43;68.01;100139.25;7275741;39;21149;31
2023/10/06 11:11:25;;;;;;;5.30;2.65;;;;;;;17.52;66.75;100138.13;7234983;40;20597;31
2023/10/06 11:16:49;;;;;;;9.80;3.20;;;;;;;17.61;67.08;100133.44;7200287;40;20626;31
2023/10/06 11:22:27;;;;;;;7.17;3.17;;;;;;;17.67;66.39;100127.25;7239969;40;20305;31
2023/10/06 11:33:08;;;;;;;6.33;2.97;;;;;;;18.03;65.13;100114.50;7265812;39;20258;31
2023/10/06 11:38:42;;;;;;;5.60;2.70;;;;;;;18.20;64.80;100112.38;7248739;40;20288;31
2023/10/06 11:44:03;;;;;;;6.00;3.20;;;;;;;18.35;63.91;100104.97;7293476;39;20307;31
2023/10/06 11:54:44;;;;;;;7.10;3.30;;;;;;;18.18;64.62;100098.06;7256913;40;20261;31
2023/10/06 12:00:19;;;;;;;5.80;3.30;;;;;;;18.52;63.90;100089.19;7258911;40;20310;31
2023/10/06 12:05:52;;;;;;;7.07;3.13;;;;;;;18.72;63.56;100088.34;7303329;39;20319;31
2023/10/06 12:11:29;;;;;;;5.30;3.20;;;;;;;19.05;62.12;100074.06;7279294;39;20261;31
2023/10/06 12:16:50;;;;;;;8.00;2.80;;;;;;;19.33;62.27;100073.00;7278599;39;20687;31
2023/10/06 12:22:25;;;;;;;8.17;3.80;;;;;;;19.51;61.04;100067.03;7267724;39;20352;31
2023/10/06 12:28:01;;;;;;;8.07;3.33;;;;;;;19.62;60.55;100055.50;7216862;40;20237;31
2023/10/06 12:33:38;;;;;;;7.00;3.50;;;;;;;19.62;60.57;100052.78;7209302;40;20669;31
2023/10/06 12:39:16;;;;;;;8.17;3.60;;;;;;;19.62;60.12;100043.72;7227005;40;20650;31
2023/10/06 12:50:16;;;;;;;10.45;4.05;;;;;;;19.15;60.93;100036.31;7209717;40;20258;31
2023/10/06 12:55:56;;;;;;;8.13;3.50;;;;;;;19.16;61.89;100030.66;7235011;40;20382;31
2023/10/06 13:01:30;;;;;;;7.90;4.13;;;;;;;19.20;60.58;100023.72;7254291;40;21223;31
2023/10/06 13:12:29;;;;;;;5.25;3.20;;;;;;;19.41;60.89;100020.03;7243687;40;20365;31
2023/10/06 13:18:07;;;;;;;8.90;4.00;;;;;;;19.42;60.89;100016.28;7297970;40;20636;31
2023/10/06 13:28:47;;;;;;;7.88;3.68;;;;;;;19.29;59.97;100018.94;7286546;40;20278;31
2023/10/06 13:39:28;;;;;;;10.73;4.13;;;;;;;19.27;59.88;100005.47;7351226;39;20809;31
2023/10/06 13:49:54;;;;;;;7.30;3.90;;;;;;;19.54;59.59;99998.25;7330382;39;20271;31
2023/10/06 14:00:32;;;;;;;13.20;4.50;;;;;;;19.40;59.26;99982.81;7302988;39;20267;31
2023/10/06 14:11:11;;;;;;;9.33;4.47;;;;;;;19.16;59.59;99986.91;7312595;39;21166;31
2023/10/06 14:16:43;;;;;;;9.60;4.60;;;;;;;19.15;59.55;99996.16;7319868;39;20259;31
2023/10/06 14:22:05;;;;;;;10.48;4.72;;;;;;;19.18;58.76;99978.50;7279463;40;20283;31
2023/10/06 14:27:38;;;;;;;9.90;4.50;;;;;;;19.11;58.54;99986.69;7294340;40;20360;31
2023/10/06 14:49:43;;;;;;;10.27;5.20;;;;;;;19.17;58.39;99963.16;7275859;39;20573;31
2023/10/06 14:55:18;;;;;;;9.57;5.10;;;;;;;19.14;57.09;99977.22;7322632;39;21335;31
2023/10/06 15:00:54;;;;;;;12.07;5.37;;;;;;;19.17;58.20;99968.63;7219979;40;20339;31
2023/10/06 15:06:33;;;;;;;9.98;6.00;;;;;;;19.09;57.71;99964.16;7232537;40;20256;31
2023/10/06 15:12:14;;;;;;;9.70;5.60;;;;;;;19.07;57.94;99957.22;7261162;40;20244;31
2023/10/06 15:17:49;;;;;;;9.90;5.55;;;;;;;19.12;59.29;99949.25;7258873;40;20494;31
2023/10/06 15:23:28;;;;;;;8.90;5.20;;;;;;;19.11;58.97;99953.03;7313438;39;20264;31
2023/10/06 15:29:10;;;;;;;9.10;5.50;;;;;;;19.09;58.26;99950.50;7290204;39;20259;31
2023/10/06 15:34:31;;;;;;;10.40;6.77;;;;;;;19.05;59.24;99941.03;7214677;40;20254;31
2023/10/06 15:39:51;;;;;;;10.80;6.50;;;;;;;18.97;59.25;99949.38;7188927;40;20349;31
2023/10/06 15:50:33;;;;;;;9.87;5.93;;;;;;;18.82;60.42;99954.97;7314771;39;21097;31
2023/10/06 15:56:08;;;;;;;12.50;6.60;;;;;;;18.71;59.92;99952.81;7279394;40;20241;31
2023/10/06 16:01:29;;;;;;;12.20;6.63;;;;;;;18.67;60.26;99957.00;7276937;40;20245;31
2023/10/06 16:07:04;;;;;;;12.93;7.30;;;;;;;18.51;60.26;99957.28;7241528;40;20348;31
2023/10/06 16:12:41;;;;;;;12.40;7.60;;;;;;;18.38;62.11;99973.56;7308862;39;20259;31
2023/10/06 16:18:03;;;;;;;11.70;7.40;;;;;;;18.23;62.06;99967.34;7260342;40;20246;31
2023/10/06 16:23:40;;;;;;;13.77;7.73;;;;;;;17.99;62.44;99965.84;7330306;39;20293;31
2023/10/06 16:29:16;;;;;;;17.40;8.32;;;;;;;17.73;63.46;99969.16;7318924;39;20338;31
2023/10/06 16:34:36;;;;;;;12.93;7.67;;;;;;;17.60;63.72;99973.62;7277710;39;20376;31
2023/10/06 16:40:12;;;;;;;12.17;7.27;;;;;;;17.32;64.00;99977.06;7259224;40;20332;31
2023/10/06 16:45:46;;;;;;;15.07;8.00;;;;;;;17.08;64.63;99971.91;7207744;40;20239;31
2023/10/06 16:51:05;;;;;;;14.95;8.30;;;;;;;16.96;64.71;99992.50;7006177;40;20436;31
2023/10/06 16:56:40;;;;;;;13.50;8.35;;;;;;;16.66;64.53;99978.03;7226206;40;20382;31
2023/10/06 17:07:23;;;;;;;16.73;9.37;;;;;;;16.37;64.97;100002.44;7270069;40;20309;31
2023/10/06 17:12:59;;;;;;;13.30;8.50;;;;;;;16.15;64.72;99998.72;7249074;40;20262;31
2023/10/06 17:18:35;;;;;;;18.10;10.23;;;;;;;15.96;65.14;99993.78;7212202;40;20243;31
2023/10/06 17:24:04;;;;;;;14.57;9.43;;;;;;;15.90;64.84;100003.50;7236959;40;20281;31
2023/10/06 17:29:36;;;;;;;17.43;9.53;;;;;;;15.77;65.05;99998.66;7246210;40;20258;31
2023/10/06 17:34:56;;;;;;;18.77;10.20;;;;;;;15.74;65.23;99990.88;7229754;40;20413;31
2023/10/06 17:40:28;;;;;;;16.50;9.80;;;;;;;15.64;65.69;99989.41;7264690;40;20240;31
2023/10/06 17:46:05;;;;;;;16.40;9.40;;;;;;;15.56;64.86;99992.19;7213362;40;20238;31
2023/10/06 17:51:27;;;;;;;18.00;9.10;;;;;;;15.49;65.54;100005.59;7236695;39;20314;31
2023/10/06 17:57:02;;;;;;;18.07;9.00;;;;;;;15.34;65.55;100004.66;7274954;39;20470;31
2023/10/06 18:02:40;;;;;;;13.50;8.37;;;;;;;15.08;66.05;100021.25;7277236;40;20386;31
2023/10/06 18:08:05;;;;;;;18.40;9.00;;;;;;;15.02;66.10;100018.38;7277751;39;20243;31
2023/10/06 18:13:38;;;;;;;16.20;8.80;;;;;;;14.98;66.57;100019.75;7288701;40;20556;31
2023/10/06 18:19:13;;;;;;;16.80;9.93;;;;;;;14.84;67.59;100010.47;7276204;40;20263;31
2023/10/06 18:24:47;;;;;;;14.47;9.30;;;;;;;14.84;66.93;100021.31;7256314;40;20346;31
2023/10/06 18:30:23;;;;;;;13.00;8.70;;;;;;;14.72;66.85;100014.56;7246933;40;20252;31
2023/10/06 18:36:00;;;;;;;15.75;7.85;;;;;;;14.49;68.06;100027.16;7267522;40;20243;31
2023/10/06 18:41:37;;;;;;;14.10;7.80;;;;;;;14.34;67.48;100021.56;7234386;40;20245;31
2023/10/06 18:46:59;;;;;;;13.27;8.03;;;;;;;14.22;68.10;100023.75;7268250;40;20399;31
2023/10/06 18:52:33;;;;;;;14.37;7.97;;;;;;;14.10;68.90;100027.81;7223724;40;20234;31
2023/10/06 18:58:09;;;;;;;14.13;7.70;;;;;;;14.10;68.86;100026.97;7204176;40;20369;31
2023/10/06 19:03:31;;;;;;;13.63;7.60;;;;;;;14.06;68.56;100029.16;7228973;40;20243;31
2023/10/06 19:09:09;;;;;;;18.00;8.17;;;;;;;13.93;69.36;100029.66;7295841;39;20260;31
2023/10/06 19:14:29;;;;;;;14.50;7.70;;;;;;;13.93;68.91;100029.66;7242696;40;20242;31
2023/10/06 19:19:48;;;;;;;12.77;6.97;;;;;;;13.87;69.34;100034.91;7256925;40;20242;31
2023/10/06 19:25:25;;;;;;;11.45;7.05;;;;;;;13.75;69.98;100045.22;7247400;40;20321;31
2023/10/06 19:36:08;;;;;;;13.60;7.40;;;;;;;13.63;70.00;100043.00;7285410;39;20301;31
2023/10/06 19:41:45;;;;;;;12.90;7.27;;;;;;;13.58;70.14;100040.78;7320045;39;20260;31
2023/10/06 19:47:02;;;;;;;12.23;6.63;;;;;;;13.49;70.26;100041.75;7289301;39;20303;31
2023/10/06 19:52:20;;;;;;;12.70;6.70;;;;;;;13.53;70.22;100043.97;7220306;40;20301;31
2023/10/06 19:57:55;;;;;;;14.93;7.30;;;;;;;13.46;70.27;100042.09;7239693;40;20251;31
2023/10/06 20:03:30;;;;;;;12.20;6.70;;;;;;;13.35;70.62;100029.69;7274329;39;20470;31
2023/10/06 20:09:09;;;;;;;12.20;6.70;;;;;;;13.30;70.86;100021.22;7219002;40;20242;31
2023/10/06 20:14:41;;;;;;;13.70;7.35;;;;;;;13.23;70.42;100024.75;7233194;40;20241;31
2023/10/06 20:20:19;;;;;;;12.33;6.60;;;;;;;13.19;70.69;100026.94;7220125;40;20332;31
2023/10/06 20:25:59;;;;;;;;;;;;;;;;;;;;;
2023/10/06 20:31:22;;;;;;;13.50;6.90;;;;;;;13.01;70.94;100029.69;7259778;40;20237;31
2023/10/06 20:36:43;;;;;;;13.30;6.87;;;;;;;12.96;70.63;100040.16;7199928;40;20252;31
2023/10/06 20:42:02;;;;;;;11.30;7.10;;;;;;;12.87;70.42;100038.41;7259821;40;20260;31
2023/10/06 20:47:38;;;;;;;12.07;6.70;;;;;;;12.72;71.00;100039.19;7261091;40;20284;31
2023/10/06 20:53:13;;;;;;;14.37;6.80;;;;;;;12.67;71.19;100031.53;7249312;39;20283;31
2023/10/06 21:03:53;;;;;;;12.30;6.70;;;;;;;12.55;71.45;100035.50;7258490;40;21017;31
2023/10/06 21:14:33;;;;;;;11.00;6.40;;;;;;;12.44;71.61;100042.03;7324516;39;20714;31
2023/10/06 21:20:11;;;;;;;11.63;6.87;;;;;;;12.45;71.56;100037.47;7299511;40;20318;31
2023/10/06 21:25:44;;;;;;;17.85;9.80;;;;;;;12.41;72.26;100042.34;7249380;40;20281;31
2023/10/06 21:31:19;;;;;;;10.62;6.06;;;;;;;12.21;72.47;100032.72;7196541;40;20491;31
2023/10/06 21:41:59;;;;;;;12.60;6.20;;;;;;;12.28;72.69;100039.22;7206476;40;21182;31
2023/10/06 21:52:26;;;;;;;9.15;5.55;;;;;;;12.37;72.78;100026.59;7339322;39;20259;31
2023/10/06 22:03:04;;;;;;;10.70;6.10;;;;;;;12.59;73.21;100018.78;7349776;39;20247;31
2023/10/06 22:08:38;;;;;;;13.90;7.30;;;;;;;12.71;73.13;100023.94;7304430;39;20244;31
2023/10/06 22:13:59;;;;;;;10.83;6.07;;;;;;;12.82;73.43;100032.63;7286609;40;20319;31
2023/10/06 22:19:35;;;;;;;11.63;5.87;;;;;;;13.02;73.45;100033.25;7300223;40;20264;31
2023/10/06 22:25:10;;;;;;;11.73;5.47;;;;;;;13.27;73.06;100032.38;7301628;40;20240;31
2023/10/06 22:30:45;;;;;;;14.70;6.40;;;;;;;13.38;72.51;100032.06;7294585;39;20341;31
2023/10/06 22:36:18;;;;;;;11.17;5.57;;;;;;;13.31;72.42;100032.91;7274526;40;20322;31
2023/10/06 22:41:39;;;;;;;11.60;5.77;;;;;;;13.34;72.59;100033.41;7257344;40;20268;31
2023/10/06 22:46:58;;;;;;;12.33;5.53;;;;;;;13.41;72.24;100029.06;7242086;40;20246;31
2023/10/06 22:52:35;;;;;;;10.00;5.40;;;;;;;13.57;72.96;100025.53;7229257;40;20264;31
2023/10/06 22:58:10;;;;;;;11.30;5.90;;;;;;;13.55;72.04;100038.41;7259113;40;20273;31
2023/10/06 23:08:50;;;;;;;11.03;5.80;;;;;;;13.40;72.77;100027.34;7241045;40;21291;31
2023/10/06 23:14:11;;;;;;;11.00;5.60;;;;;;;13.15;73.21;100033.69;7245255;40;20269;31
2023/10/06 23:19:33;;;;;;;11.20;5.53;;;;;;;13.02;72.77;100036.81;7322783;39;20382;31
2023/10/06 23:30:10;;;;;;;11.15;5.80;;;;;;;12.70;74.33;100039.31;7350190;39;21156;31
2023/10/06 23:35:41;;;;;;;11.47;5.47;;;;;;;12.66;73.92;100037.94;7098169;40;20369;31
2023/10/06 23:41:11;;;;;;;9.50;5.83;;;;;;;12.70;73.96;100035.75;7278216;40;20244;31
2023/10/06 23:46:42;;;;;;;11.55;5.70;;;;;;;12.71;73.76;100011.28;7258992;40;20257;31
2023/10/06 23:52:04;;;;;;;8.97;5.30;;;;;;;12.55;73.30;100014.72;7238357;40;20391;31
2023/10/06 23:57:26;;;;;;;11.63;6.03;;;;;;;12.50;73.43;100022.47;7285075;39;20240;31
